sensor_id;sensor_type;location;lat;lon;timestamp;temperature;humidity
42187;DHT22;27858;51.414;0.018;2024-02-15T00:00:23;12.80;99.90
42187;DHT22;27858;51.414;0.018;2024-02-15T00:02:52;12.80;99.90
42187;DHT22;27858;51.414;0.018;2024-02-15T00:05:20;13.50;99.90
42187;DHT22;27858;51.414;0.018;2024-02-15T00:07:47;12.80;99.90
42187;DHT22;27858;51.414;0.018;2024-02-15T00:10:17;13.20;99.90
42187;DHT22;27858;51.414;0.018;2024-02-15T00:12:44;12.80;99.90
42187;DHT22;27858;51.414;0.018;2024-02-15T00:15:11;13.10;99.90
42187;DHT22;27858;51.414;0.018;2024-02-15T00:17:39;13.40;99.90
42187;DHT22;27858;51.414;0.018;2024-02-15T00:20:07;12.70;99.90
42187;DHT22;27858;51.414;0.018;2024-02-15T00:22:36;13.20;99.90
42187;DHT22;27858;51.414;0.018;2024-02-15T00:25:04;13.40;99.90
42187;DHT22;27858;51.414;0.018;2024-02-15T00:27:32;13.10;99.90
42187;DHT22;27858;51.414;0.018;2024-02-15T00:30:03;12.80;99.90
42187;DHT22;27858;51.414;0.018;2024-02-15T00:32:30;12.80;99.90
42187;DHT22;27858;51.414;0.018;2024-02-15T00:34:57;12.90;99.90
42187;DHT22;27858;51.414;0.018;2024-02-15T00:37:24;13.10;99.90
42187;DHT22;27858;51.414;0.018;2024-02-15T00:39:51;12.90;99.90
42187;DHT22;27858;51.414;0.018;2024-02-15T00:42:18;13.00;99.90
42187;DHT22;27858;51.414;0.018;2024-02-15T00:44:45;13.30;99.90
42187;DHT22;27858;51.414;0.018;2024-02-15T00:47:12;12.90;99.90
42187;DHT22;27858;51.414;0.018;2024-02-15T00:49:39;12.90;99.90
42187;DHT22;27858;51.414;0.018;2024-02-15T00:52:06;13.40;99.90
42187;DHT22;27858;51.414;0.018;2024-02-15T00:57:01;13.40;99.90
42187;DHT22;27858;51.414;0.018;2024-02-15T00:59:29;13.40;99.90
42187;DHT22;27858;51.414;0.018;2024-02-15T01:01:56;13.20;99.90
42187;DHT22;27858;51.414;0.018;2024-02-15T01:04:25;12.90;99.90
42187;DHT22;27858;51.414;0.018;2024-02-15T01:06:52;13.10;99.90
42187;DHT22;27858;51.414;0.018;2024-02-15T01:09:23;13.50;99.90
42187;DHT22;27858;51.414;0.018;2024-02-15T01:11:50;12.80;99.90
42187;DHT22;27858;51.414;0.018;2024-02-15T01:14:17;13.50;99.90
42187;DHT22;27858;51.414;0.018;2024-02-15T01:16:44;13.50;99.90
42187;DHT22;27858;51.414;0.018;2024-02-15T01:19:13;13.60;99.90
42187;DHT22;27858;51.414;0.018;2024-02-15T01:21:42;13.50;99.90
42187;DHT22;27858;51.414;0.018;2024-02-15T01:24:10;12.90;99.90
42187;DHT22;27858;51.414;0.018;2024-02-15T01:26:37;13.50;99.90
42187;DHT22;27858;51.414;0.018;2024-02-15T01:29:05;12.90;99.90
42187;DHT22;27858;51.414;0.018;2024-02-15T01:31:33;13.40;99.90
42187;DHT22;27858;51.414;0.018;2024-02-15T01:34:00;13.40;99.90
42187;DHT22;27858;51.414;0.018;2024-02-15T01:36:27;13.50;99.90
42187;DHT22;27858;51.414;0.018;2024-02-15T01:38:54;13.40;99.90
42187;DHT22;27858;51.414;0.018;2024-02-15T01:41:21;12.90;99.90
42187;DHT22;27858;51.414;0.018;2024-02-15T01:43:48;13.00;99.90
42187;DHT22;27858;51.414;0.018;2024-02-15T01:46:16;13.40;99.90
42187;DHT22;27858;51.414;0.018;2024-02-15T01:48:45;13.50;99.90
42187;DHT22;27858;51.414;0.018;2024-02-15T01:51:13;13.20;99.90
42187;DHT22;27858;51.414;0.018;2024-02-15T01:53:43;13.40;99.90
42187;DHT22;27858;51.414;0.018;2024-02-15T01:56:13;13.40;99.90
42187;DHT22;27858;51.414;0.018;2024-02-15T01:58:41;13.40;99.90
42187;DHT22;27858;51.414;0.018;2024-02-15T02:01:09;13.00;99.90
42187;DHT22;27858;51.414;0.018;2024-02-15T02:03:36;13.40;99.90
42187;DHT22;27858;51.414;0.018;2024-02-15T02:06:03;13.40;99.90
42187;DHT22;27858;51.414;0.018;2024-02-15T02:08:31;13.20;99.90
42187;DHT22;27858;51.414;0.018;2024-02-15T02:10:59;13.40;99.90
42187;DHT22;27858;51.414;0.018;2024-02-15T02:13:28;13.40;99.90
42187;DHT22;27858;51.414;0.018;2024-02-15T02:15:57;13.40;99.90
42187;DHT22;27858;51.414;0.018;2024-02-15T02:18:24;13.20;99.90
42187;DHT22;27858;51.414;0.018;2024-02-15T02:20:52;13.30;99.90
42187;DHT22;27858;51.414;0.018;2024-02-15T02:23:23;13.10;99.90
42187;DHT22;27858;51.414;0.018;2024-02-15T02:25:51;12.90;99.90
42187;DHT22;27858;51.414;0.018;2024-02-15T02:28:18;12.80;99.90
42187;DHT22;27858;51.414;0.018;2024-02-15T02:30:45;13.30;99.90
42187;DHT22;27858;51.414;0.018;2024-02-15T02:33:12;12.70;99.90
42187;DHT22;27858;51.414;0.018;2024-02-15T02:35:47;13.40;99.90
42187;DHT22;27858;51.414;0.018;2024-02-15T02:38:15;13.40;99.90
42187;DHT22;27858;51.414;0.018;2024-02-15T02:40:42;12.80;99.90
42187;DHT22;27858;51.414;0.018;2024-02-15T02:43:08;13.30;99.90
42187;DHT22;27858;51.414;0.018;2024-02-15T02:45:36;13.30;99.90
42187;DHT22;27858;51.414;0.018;2024-02-15T02:48:04;12.80;99.90
42187;DHT22;27858;51.414;0.018;2024-02-15T02:53:14;13.40;99.90
42187;DHT22;27858;51.414;0.018;2024-02-15T02:55:42;13.40;99.90
42187;DHT22;27858;51.414;0.018;2024-02-15T02:58:17;12.80;99.90
42187;DHT22;27858;51.414;0.018;2024-02-15T03:00:43;13.00;99.90
42187;DHT22;27858;51.414;0.018;2024-02-15T03:03:10;12.90;99.90
42187;DHT22;27858;51.414;0.018;2024-02-15T03:05:37;12.70;99.90
42187;DHT22;27858;51.414;0.018;2024-02-15T03:08:09;13.30;99.90
42187;DHT22;27858;51.414;0.018;2024-02-15T03:10:35;13.40;99.90
42187;DHT22;27858;51.414;0.018;2024-02-15T03:13:02;13.40;99.90
42187;DHT22;27858;51.414;0.018;2024-02-15T03:15:31;12.90;99.90
42187;DHT22;27858;51.414;0.018;2024-02-15T03:18:00;13.40;99.90
42187;DHT22;27858;51.414;0.018;2024-02-15T03:20:27;13.20;99.90
42187;DHT22;27858;51.414;0.018;2024-02-15T03:22:57;13.40;99.90
42187;DHT22;27858;51.414;0.018;2024-02-15T03:25:25;12.90;99.90
42187;DHT22;27858;51.414;0.018;2024-02-15T03:27:53;13.30;99.90
42187;DHT22;27858;51.414;0.018;2024-02-15T03:30:21;13.30;99.90
42187;DHT22;27858;51.414;0.018;2024-02-15T03:32:48;12.90;99.90
42187;DHT22;27858;51.414;0.018;2024-02-15T03:35:19;13.30;99.90
42187;DHT22;27858;51.414;0.018;2024-02-15T03:37:46;13.00;99.90
42187;DHT22;27858;51.414;0.018;2024-02-15T03:40:13;13.00;99.90
42187;DHT22;27858;51.414;0.018;2024-02-15T03:42:41;13.10;99.90
42187;DHT22;27858;51.414;0.018;2024-02-15T03:45:08;13.40;99.90
42187;DHT22;27858;51.414;0.018;2024-02-15T03:47:36;13.00;99.90
42187;DHT22;27858;51.414;0.018;2024-02-15T03:50:04;13.40;99.90
42187;DHT22;27858;51.414;0.018;2024-02-15T03:52:32;13.50;99.90
42187;DHT22;27858;51.414;0.018;2024-02-15T03:54:58;13.30;99.90
42187;DHT22;27858;51.414;0.018;2024-02-15T03:57:26;13.40;99.90
42187;DHT22;27858;51.414;0.018;2024-02-15T03:59:53;13.40;99.90
42187;DHT22;27858;51.414;0.018;2024-02-15T04:02:23;13.20;99.90
42187;DHT22;27858;51.414;0.018;2024-02-15T04:04:53;13.20;99.90
42187;DHT22;27858;51.414;0.018;2024-02-15T04:07:24;13.10;99.90
42187;DHT22;27858;51.414;0.018;2024-02-15T04:09:53;13.10;99.90
42187;DHT22;27858;51.414;0.018;2024-02-15T04:12:21;13.20;99.90
42187;DHT22;27858;51.414;0.018;2024-02-15T04:14:50;13.10;99.90
42187;DHT22;27858;51.414;0.018;2024-02-15T04:17:17;13.40;99.90
42187;DHT22;27858;51.414;0.018;2024-02-15T04:19:48;13.50;99.90
42187;DHT22;27858;51.414;0.018;2024-02-15T04:22:17;13.50;99.90
42187;DHT22;27858;51.414;0.018;2024-02-15T04:24:44;13.60;99.90
42187;DHT22;27858;51.414;0.018;2024-02-15T04:27:12;13.60;99.90
42187;DHT22;27858;51.414;0.018;2024-02-15T04:29:42;13.20;99.90
42187;DHT22;27858;51.414;0.018;2024-02-15T04:32:11;13.30;99.90
42187;DHT22;27858;51.414;0.018;2024-02-15T04:34:39;13.70;99.90
42187;DHT22;27858;51.414;0.018;2024-02-15T04:37:06;13.60;99.90
42187;DHT22;27858;51.414;0.018;2024-02-15T04:39:37;13.30;99.90
42187;DHT22;27858;51.414;0.018;2024-02-15T04:42:05;13.40;99.90
42187;DHT22;27858;51.414;0.018;2024-02-15T04:44:34;13.30;99.90
42187;DHT22;27858;51.414;0.018;2024-02-15T04:47:02;13.40;99.90
42187;DHT22;27858;51.414;0.018;2024-02-15T04:49:31;13.80;99.90
42187;DHT22;27858;51.414;0.018;2024-02-15T04:51:58;13.30;99.90
42187;DHT22;27858;51.414;0.018;2024-02-15T04:54:27;13.60;99.90
42187;DHT22;27858;51.414;0.018;2024-02-15T04:56:54;13.80;99.90
42187;DHT22;27858;51.414;0.018;2024-02-15T04:59:21;13.40;99.90
42187;DHT22;27858;51.414;0.018;2024-02-15T05:01:52;13.80;99.90
42187;DHT22;27858;51.414;0.018;2024-02-15T05:04:20;13.40;99.90
42187;DHT22;27858;51.414;0.018;2024-02-15T05:06:47;13.80;99.90
42187;DHT22;27858;51.414;0.018;2024-02-15T05:09:14;13.60;99.90
42187;DHT22;27858;51.414;0.018;2024-02-15T05:11:41;13.50;99.90
42187;DHT22;27858;51.414;0.018;2024-02-15T05:14:09;13.30;99.90
42187;DHT22;27858;51.414;0.018;2024-02-15T05:16:37;13.50;99.90
42187;DHT22;27858;51.414;0.018;2024-02-15T05:19:09;13.70;99.90
42187;DHT22;27858;51.414;0.018;2024-02-15T05:21:39;13.70;99.90
42187;DHT22;27858;51.414;0.018;2024-02-15T05:24:07;13.30;99.90
42187;DHT22;27858;51.414;0.018;2024-02-15T05:26:34;13.20;99.90
42187;DHT22;27858;51.414;0.018;2024-02-15T05:29:02;13.50;99.90
42187;DHT22;27858;51.414;0.018;2024-02-15T05:31:32;13.30;99.90
42187;DHT22;27858;51.414;0.018;2024-02-15T05:34:01;13.30;99.90
42187;DHT22;27858;51.414;0.018;2024-02-15T05:36:28;13.70;99.90
42187;DHT22;27858;51.414;0.018;2024-02-15T05:38:57;13.70;99.90
42187;DHT22;27858;51.414;0.018;2024-02-15T05:41:25;13.30;99.90
42187;DHT22;27858;51.414;0.018;2024-02-15T05:43:52;13.30;99.90
42187;DHT22;27858;51.414;0.018;2024-02-15T05:46:19;13.40;99.90
42187;DHT22;27858;51.414;0.018;2024-02-15T05:48:50;13.70;99.90
42187;DHT22;27858;51.414;0.018;2024-02-15T05:51:18;13.40;99.90
42187;DHT22;27858;51.414;0.018;2024-02-15T05:53:45;13.70;99.90
42187;DHT22;27858;51.414;0.018;2024-02-15T05:56:12;13.60;99.90
42187;DHT22;27858;51.414;0.018;2024-02-15T05:58:41;13.70;99.90
42187;DHT22;27858;51.414;0.018;2024-02-15T06:01:08;13.80;99.90
42187;DHT22;27858;51.414;0.018;2024-02-15T06:03:38;13.40;99.90
42187;DHT22;27858;51.414;0.018;2024-02-15T06:06:08;13.50;99.90
42187;DHT22;27858;51.414;0.018;2024-02-15T06:08:36;13.70;99.90
42187;DHT22;27858;51.414;0.018;2024-02-15T06:11:04;13.70;99.90
42187;DHT22;27858;51.414;0.018;2024-02-15T06:13:36;13.40;99.90
42187;DHT22;27858;51.414;0.018;2024-02-15T06:16:03;13.70;99.90
42187;DHT22;27858;51.414;0.018;2024-02-15T06:18:35;13.70;99.90
42187;DHT22;27858;51.414;0.018;2024-02-15T06:21:04;13.60;99.90
42187;DHT22;27858;51.414;0.018;2024-02-15T06:23:32;13.40;99.90
42187;DHT22;27858;51.414;0.018;2024-02-15T06:26:00;13.70;99.90
42187;DHT22;27858;51.414;0.018;2024-02-15T06:28:30;13.60;99.90
42187;DHT22;27858;51.414;0.018;2024-02-15T06:31:15;13.50;99.90
42187;DHT22;27858;51.414;0.018;2024-02-15T06:34:00;13.30;99.90
42187;DHT22;27858;51.414;0.018;2024-02-15T06:36:48;13.30;99.90
42187;DHT22;27858;51.414;0.018;2024-02-15T06:39:41;13.30;99.90
42187;DHT22;27858;51.414;0.018;2024-02-15T06:42:10;13.50;99.90
42187;DHT22;27858;51.414;0.018;2024-02-15T06:44:38;13.20;99.90
42187;DHT22;27858;51.414;0.018;2024-02-15T06:47:07;13.40;99.90
42187;DHT22;27858;51.414;0.018;2024-02-15T06:49:39;13.40;99.90
42187;DHT22;27858;51.414;0.018;2024-02-15T06:52:10;13.50;99.90
42187;DHT22;27858;51.414;0.018;2024-02-15T06:54:41;13.20;99.90
42187;DHT22;27858;51.414;0.018;2024-02-15T06:57:09;13.20;99.90
42187;DHT22;27858;51.414;0.018;2024-02-15T06:59:36;13.40;99.90
42187;DHT22;27858;51.414;0.018;2024-02-15T07:02:06;13.30;99.90
42187;DHT22;27858;51.414;0.018;2024-02-15T07:04:35;13.20;99.90
42187;DHT22;27858;51.414;0.018;2024-02-15T07:07:04;13.20;99.90
42187;DHT22;27858;51.414;0.018;2024-02-15T07:09:31;13.30;99.90
42187;DHT22;27858;51.414;0.018;2024-02-15T07:12:00;13.20;99.90
42187;DHT22;27858;51.414;0.018;2024-02-15T07:14:27;13.10;99.90
42187;DHT22;27858;51.414;0.018;2024-02-15T07:16:55;13.30;99.90
42187;DHT22;27858;51.414;0.018;2024-02-15T07:19:25;13.20;99.90
42187;DHT22;27858;51.414;0.018;2024-02-15T07:21:54;13.30;99.90
42187;DHT22;27858;51.414;0.018;2024-02-15T07:24:23;13.30;99.90
42187;DHT22;27858;51.414;0.018;2024-02-15T07:26:54;13.10;99.90
42187;DHT22;27858;51.414;0.018;2024-02-15T07:29:22;13.10;99.90
42187;DHT22;27858;51.414;0.018;2024-02-15T07:31:50;13.00;99.90
42187;DHT22;27858;51.414;0.018;2024-02-15T07:34:17;13.10;99.90
42187;DHT22;27858;51.414;0.018;2024-02-15T07:36:44;13.10;99.90
42187;DHT22;27858;51.414;0.018;2024-02-15T07:39:12;13.10;99.90
42187;DHT22;27858;51.414;0.018;2024-02-15T07:41:52;13.10;99.90
42187;DHT22;27858;51.414;0.018;2024-02-15T07:44:19;13.00;99.90
42187;DHT22;27858;51.414;0.018;2024-02-15T07:46:46;13.00;99.90
42187;DHT22;27858;51.414;0.018;2024-02-15T07:49:13;13.10;99.90
42187;DHT22;27858;51.414;0.018;2024-02-15T07:51:41;13.00;99.90
42187;DHT22;27858;51.414;0.018;2024-02-15T07:54:08;13.10;99.90
42187;DHT22;27858;51.414;0.018;2024-02-15T07:56:35;13.10;99.90
42187;DHT22;27858;51.414;0.018;2024-02-15T07:59:04;13.30;99.90
42187;DHT22;27858;51.414;0.018;2024-02-15T08:01:31;13.20;99.90
42187;DHT22;27858;51.414;0.018;2024-02-15T08:03:58;13.30;99.90
42187;DHT22;27858;51.414;0.018;2024-02-15T08:06:25;13.20;99.90
42187;DHT22;27858;51.414;0.018;2024-02-15T08:08:57;13.20;99.90
42187;DHT22;27858;51.414;0.018;2024-02-15T08:11:26;13.20;99.90
42187;DHT22;27858;51.414;0.018;2024-02-15T08:13:53;13.30;99.90
42187;DHT22;27858;51.414;0.018;2024-02-15T08:16:22;13.30;99.90
42187;DHT22;27858;51.414;0.018;2024-02-15T08:18:50;13.30;99.90
42187;DHT22;27858;51.414;0.018;2024-02-15T08:21:28;13.40;99.90
42187;DHT22;27858;51.414;0.018;2024-02-15T08:23:56;13.30;99.90
42187;DHT22;27858;51.414;0.018;2024-02-15T08:26:23;13.40;99.90
42187;DHT22;27858;51.414;0.018;2024-02-15T08:28:50;13.30;99.90
42187;DHT22;27858;51.414;0.018;2024-02-15T08:31:17;13.40;99.90
42187;DHT22;27858;51.414;0.018;2024-02-15T08:33:46;13.30;99.90
42187;DHT22;27858;51.414;0.018;2024-02-15T08:36:13;13.40;99.90
42187;DHT22;27858;51.414;0.018;2024-02-15T08:38:41;13.40;99.90
42187;DHT22;27858;51.414;0.018;2024-02-15T08:41:08;13.40;99.90
42187;DHT22;27858;51.414;0.018;2024-02-15T08:43:38;13.50;99.90
42187;DHT22;27858;51.414;0.018;2024-02-15T08:46:08;13.50;99.90
42187;DHT22;27858;51.414;0.018;2024-02-15T08:48:35;13.50;99.90
42187;DHT22;27858;51.414;0.018;2024-02-15T08:51:02;13.60;99.90
42187;DHT22;27858;51.414;0.018;2024-02-15T08:53:30;13.50;99.90
42187;DHT22;27858;51.414;0.018;2024-02-15T08:55:58;13.40;99.90
42187;DHT22;27858;51.414;0.018;2024-02-15T08:58:26;13.40;99.90
42187;DHT22;27858;51.414;0.018;2024-02-15T09:00:53;13.40;99.90
42187;DHT22;27858;51.414;0.018;2024-02-15T09:03:21;13.40;99.90
42187;DHT22;27858;51.414;0.018;2024-02-15T09:05:48;13.50;99.90
42187;DHT22;27858;51.414;0.018;2024-02-15T09:08:16;13.50;99.90
42187;DHT22;27858;51.414;0.018;2024-02-15T09:10:49;13.50;99.90
42187;DHT22;27858;51.414;0.018;2024-02-15T09:13:16;13.60;99.90
42187;DHT22;27858;51.414;0.018;2024-02-15T09:15:43;13.60;99.90
42187;DHT22;27858;51.414;0.018;2024-02-15T09:18:10;13.70;99.90
42187;DHT22;27858;51.414;0.018;2024-02-15T09:20:38;13.60;99.90
42187;DHT22;27858;51.414;0.018;2024-02-15T09:23:11;13.70;99.90
42187;DHT22;27858;51.414;0.018;2024-02-15T09:25:39;13.70;99.90
42187;DHT22;27858;51.414;0.018;2024-02-15T09:28:09;13.80;99.90
42187;DHT22;27858;51.414;0.018;2024-02-15T09:30:36;13.90;99.90
42187;DHT22;27858;51.414;0.018;2024-02-15T09:33:04;13.80;99.90
42187;DHT22;27858;51.414;0.018;2024-02-15T09:35:32;13.80;99.90
42187;DHT22;27858;51.414;0.018;2024-02-15T09:37:59;13.90;99.90
42187;DHT22;27858;51.414;0.018;2024-02-15T09:40:26;13.90;99.90
42187;DHT22;27858;51.414;0.018;2024-02-15T09:42:56;13.90;99.90
42187;DHT22;27858;51.414;0.018;2024-02-15T09:45:26;13.90;99.90
42187;DHT22;27858;51.414;0.018;2024-02-15T09:47:54;14.00;99.90
42187;DHT22;27858;51.414;0.018;2024-02-15T09:50:25;14.00;99.90
42187;DHT22;27858;51.414;0.018;2024-02-15T09:52:54;14.10;99.90
42187;DHT22;27858;51.414;0.018;2024-02-15T09:55:24;14.00;99.90
42187;DHT22;27858;51.414;0.018;2024-02-15T09:57:55;14.10;99.90
42187;DHT22;27858;51.414;0.018;2024-02-15T10:00:26;14.10;99.90
42187;DHT22;27858;51.414;0.018;2024-02-15T10:02:53;14.10;99.90
42187;DHT22;27858;51.414;0.018;2024-02-15T10:05:22;14.10;99.90
42187;DHT22;27858;51.414;0.018;2024-02-15T10:07:50;14.10;99.90
42187;DHT22;27858;51.414;0.018;2024-02-15T10:10:18;14.10;99.90
42187;DHT22;27858;51.414;0.018;2024-02-15T10:12:50;14.20;99.90
42187;DHT22;27858;51.414;0.018;2024-02-15T10:15:35;14.10;99.90
42187;DHT22;27858;51.414;0.018;2024-02-15T10:18:07;14.20;99.90
42187;DHT22;27858;51.414;0.018;2024-02-15T10:20:41;14.20;99.90
42187;DHT22;27858;51.414;0.018;2024-02-15T10:23:14;14.30;99.90
42187;DHT22;27858;51.414;0.018;2024-02-15T10:25:45;14.20;99.90
42187;DHT22;27858;51.414;0.018;2024-02-15T10:28:14;14.30;99.90
42187;DHT22;27858;51.414;0.018;2024-02-15T10:30:43;14.30;99.90
42187;DHT22;27858;51.414;0.018;2024-02-15T10:33:32;14.40;99.90
42187;DHT22;27858;51.414;0.018;2024-02-15T10:36:27;14.40;99.90
42187;DHT22;27858;51.414;0.018;2024-02-15T10:39:17;14.40;99.90
42187;DHT22;27858;51.414;0.018;2024-02-15T10:41:48;14.30;99.90
42187;DHT22;27858;51.414;0.018;2024-02-15T10:44:17;14.40;99.90
42187;DHT22;27858;51.414;0.018;2024-02-15T10:46:52;14.40;99.90
42187;DHT22;27858;51.414;0.018;2024-02-15T10:49:22;14.50;99.90
42187;DHT22;27858;51.414;0.018;2024-02-15T10:51:58;14.50;99.90
42187;DHT22;27858;51.414;0.018;2024-02-15T10:54:38;14.60;99.90
42187;DHT22;27858;51.414;0.018;2024-02-15T10:57:26;14.50;99.90
42187;DHT22;27858;51.414;0.018;2024-02-15T11:00:00;14.70;99.90
42187;DHT22;27858;51.414;0.018;2024-02-15T11:02:38;14.70;99.90
42187;DHT22;27858;51.414;0.018;2024-02-15T11:05:10;14.70;99.90
42187;DHT22;27858;51.414;0.018;2024-02-15T11:07:51;14.70;99.90
42187;DHT22;27858;51.414;0.018;2024-02-15T11:10:26;14.70;99.90
42187;DHT22;27858;51.414;0.018;2024-02-15T11:12:54;14.70;99.90
42187;DHT22;27858;51.414;0.018;2024-02-15T11:15:40;14.70;99.90
42187;DHT22;27858;51.414;0.018;2024-02-15T11:18:11;14.80;99.90
42187;DHT22;27858;51.414;0.018;2024-02-15T11:23:08;14.90;99.90
42187;DHT22;27858;51.414;0.018;2024-02-15T11:25:41;15.00;99.90
42187;DHT22;27858;51.414;0.018;2024-02-15T11:30:49;15.20;99.90
42187;DHT22;27858;51.414;0.018;2024-02-15T11:33:35;15.10;99.90
42187;DHT22;27858;51.414;0.018;2024-02-15T11:36:04;15.30;99.90
42187;DHT22;27858;51.414;0.018;2024-02-15T11:38:35;15.30;99.90
42187;DHT22;27858;51.414;0.018;2024-02-15T11:41:04;15.40;99.90
42187;DHT22;27858;51.414;0.018;2024-02-15T11:43:48;15.50;99.90
42187;DHT22;27858;51.414;0.018;2024-02-15T11:46:26;15.60;99.90
42187;DHT22;27858;51.414;0.018;2024-02-15T11:48:57;15.60;99.90
42187;DHT22;27858;51.414;0.018;2024-02-15T11:51:31;15.60;99.90
42187;DHT22;27858;51.414;0.018;2024-02-15T11:54:07;15.70;99.90
42187;DHT22;27858;51.414;0.018;2024-02-15T11:59:16;15.70;99.90
42187;DHT22;27858;51.414;0.018;2024-02-15T12:01:58;15.80;99.90
42187;DHT22;27858;51.414;0.018;2024-02-15T12:04:44;15.80;99.90
42187;DHT22;27858;51.414;0.018;2024-02-15T12:07:32;15.80;99.90
42187;DHT22;27858;51.414;0.018;2024-02-15T12:10:19;15.90;99.90
42187;DHT22;27858;51.414;0.018;2024-02-15T12:13:05;16.00;99.90
42187;DHT22;27858;51.414;0.018;2024-02-15T12:16:00;16.10;99.90
42187;DHT22;27858;51.414;0.018;2024-02-15T12:18:45;16.20;99.90
42187;DHT22;27858;51.414;0.018;2024-02-15T12:21:17;16.30;99.90
42187;DHT22;27858;51.414;0.018;2024-02-15T12:23:45;16.30;99.90
42187;DHT22;27858;51.414;0.018;2024-02-15T12:26:13;16.30;99.90
42187;DHT22;27858;51.414;0.018;2024-02-15T12:28:41;16.40;99.90
42187;DHT22;27858;51.414;0.018;2024-02-15T12:31:13;16.50;99.90
42187;DHT22;27858;51.414;0.018;2024-02-15T12:33:40;16.60;99.90
42187;DHT22;27858;51.414;0.018;2024-02-15T12:36:09;16.60;99.90
42187;DHT22;27858;51.414;0.018;2024-02-15T12:38:36;16.80;99.90
42187;DHT22;27858;51.414;0.018;2024-02-15T12:41:19;16.80;99.90
42187;DHT22;27858;51.414;0.018;2024-02-15T12:43:46;16.90;99.90
42187;DHT22;27858;51.414;0.018;2024-02-15T12:46:18;17.00;99.90
42187;DHT22;27858;51.414;0.018;2024-02-15T12:48:45;17.00;99.90
42187;DHT22;27858;51.414;0.018;2024-02-15T12:51:14;17.10;99.90
42187;DHT22;27858;51.414;0.018;2024-02-15T12:53:42;17.10;99.90
42187;DHT22;27858;51.414;0.018;2024-02-15T12:56:09;17.10;99.90
42187;DHT22;27858;51.414;0.018;2024-02-15T12:58:36;17.20;99.90
42187;DHT22;27858;51.414;0.018;2024-02-15T13:01:03;17.10;99.90
42187;DHT22;27858;51.414;0.018;2024-02-15T13:03:31;17.10;99.90
42187;DHT22;27858;51.414;0.018;2024-02-15T13:05:58;17.10;99.90
42187;DHT22;27858;51.414;0.018;2024-02-15T13:08:25;17.20;99.90
42187;DHT22;27858;51.414;0.018;2024-02-15T13:10:52;17.20;99.90
42187;DHT22;27858;51.414;0.018;2024-02-15T13:13:19;17.20;99.90
42187;DHT22;27858;51.414;0.018;2024-02-15T13:15:47;17.20;99.90
42187;DHT22;27858;51.414;0.018;2024-02-15T13:18:18;17.10;99.90
42187;DHT22;27858;51.414;0.018;2024-02-15T13:20:46;17.10;99.90
42187;DHT22;27858;51.414;0.018;2024-02-15T13:23:16;17.10;99.90
42187;DHT22;27858;51.414;0.018;2024-02-15T13:25:43;17.10;99.90
42187;DHT22;27858;51.414;0.018;2024-02-15T13:28:12;17.20;99.90
42187;DHT22;27858;51.414;0.018;2024-02-15T13:30:41;17.30;99.90
42187;DHT22;27858;51.414;0.018;2024-02-15T13:33:10;17.30;99.90
42187;DHT22;27858;51.414;0.018;2024-02-15T13:35:37;17.30;99.90
42187;DHT22;27858;51.414;0.018;2024-02-15T13:38:04;17.30;99.90
42187;DHT22;27858;51.414;0.018;2024-02-15T13:40:31;17.30;99.90
42187;DHT22;27858;51.414;0.018;2024-02-15T13:42:59;17.40;99.90
42187;DHT22;27858;51.414;0.018;2024-02-15T13:45:31;17.40;99.90
42187;DHT22;27858;51.414;0.018;2024-02-15T13:48:01;17.40;99.90
42187;DHT22;27858;51.414;0.018;2024-02-15T13:50:30;17.40;99.90
42187;DHT22;27858;51.414;0.018;2024-02-15T13:52:57;17.40;99.90
42187;DHT22;27858;51.414;0.018;2024-02-15T13:55:25;17.40;99.90
42187;DHT22;27858;51.414;0.018;2024-02-15T13:57:54;17.50;99.90
42187;DHT22;27858;51.414;0.018;2024-02-15T14:00:24;17.60;99.90
42187;DHT22;27858;51.414;0.018;2024-02-15T14:03:02;17.60;99.90
42187;DHT22;27858;51.414;0.018;2024-02-15T14:05:32;17.60;99.90
42187;DHT22;27858;51.414;0.018;2024-02-15T14:08:03;17.50;99.90
42187;DHT22;27858;51.414;0.018;2024-02-15T14:10:33;17.40;99.90
42187;DHT22;27858;51.414;0.018;2024-02-15T14:13:02;17.40;99.90
42187;DHT22;27858;51.414;0.018;2024-02-15T14:15:30;17.50;99.90
42187;DHT22;27858;51.414;0.018;2024-02-15T14:18:00;17.40;99.90
42187;DHT22;27858;51.414;0.018;2024-02-15T14:20:28;17.40;99.90
42187;DHT22;27858;51.414;0.018;2024-02-15T14:22:55;17.40;99.90
42187;DHT22;27858;51.414;0.018;2024-02-15T14:25:26;17.30;99.90
42187;DHT22;27858;51.414;0.018;2024-02-15T14:27:54;17.30;99.90
42187;DHT22;27858;51.414;0.018;2024-02-15T14:30:21;17.20;99.90
42187;DHT22;27858;51.414;0.018;2024-02-15T14:33:07;17.30;99.90
42187;DHT22;27858;51.414;0.018;2024-02-15T14:35:45;17.20;99.90
42187;DHT22;27858;51.414;0.018;2024-02-15T14:38:13;17.20;99.90
42187;DHT22;27858;51.414;0.018;2024-02-15T14:40:43;17.20;99.90
42187;DHT22;27858;51.414;0.018;2024-02-15T14:43:12;17.20;99.90
42187;DHT22;27858;51.414;0.018;2024-02-15T14:45:45;17.20;99.90
42187;DHT22;27858;51.414;0.018;2024-02-15T14:48:13;17.30;99.90
42187;DHT22;27858;51.414;0.018;2024-02-15T14:50:41;17.20;99.90
42187;DHT22;27858;51.414;0.018;2024-02-15T14:53:09;17.20;99.90
42187;DHT22;27858;51.414;0.018;2024-02-15T14:55:36;17.20;99.90
42187;DHT22;27858;51.414;0.018;2024-02-15T14:58:11;17.30;99.90
42187;DHT22;27858;51.414;0.018;2024-02-15T15:00:44;17.30;99.90
42187;DHT22;27858;51.414;0.018;2024-02-15T15:03:12;17.30;99.90
42187;DHT22;27858;51.414;0.018;2024-02-15T15:05:44;17.30;99.90
42187;DHT22;27858;51.414;0.018;2024-02-15T15:08:30;17.30;99.90
42187;DHT22;27858;51.414;0.018;2024-02-15T15:11:15;17.30;99.90
42187;DHT22;27858;51.414;0.018;2024-02-15T15:14:01;17.20;99.90
42187;DHT22;27858;51.414;0.018;2024-02-15T15:16:31;17.10;99.90
42187;DHT22;27858;51.414;0.018;2024-02-15T15:19:01;17.10;99.90
42187;DHT22;27858;51.414;0.018;2024-02-15T15:21:29;17.10;99.90
42187;DHT22;27858;51.414;0.018;2024-02-15T15:23:56;17.00;99.90
42187;DHT22;27858;51.414;0.018;2024-02-15T15:26:26;17.00;99.90
42187;DHT22;27858;51.414;0.018;2024-02-15T15:28:53;17.00;99.90
42187;DHT22;27858;51.414;0.018;2024-02-15T15:31:24;17.00;99.90
42187;DHT22;27858;51.414;0.018;2024-02-15T15:33:51;17.00;99.90
42187;DHT22;27858;51.414;0.018;2024-02-15T15:36:19;16.90;99.90
42187;DHT22;27858;51.414;0.018;2024-02-15T15:38:49;16.80;99.90
42187;DHT22;27858;51.414;0.018;2024-02-15T15:41:17;16.80;99.90
42187;DHT22;27858;51.414;0.018;2024-02-15T15:43:44;16.60;99.90
42187;DHT22;27858;51.414;0.018;2024-02-15T15:46:13;16.70;99.90
42187;DHT22;27858;51.414;0.018;2024-02-15T15:48:41;16.60;99.90
42187;DHT22;27858;51.414;0.018;2024-02-15T15:51:09;16.50;99.90
42187;DHT22;27858;51.414;0.018;2024-02-15T15:53:37;16.50;99.90
42187;DHT22;27858;51.414;0.018;2024-02-15T15:56:06;16.40;99.90
42187;DHT22;27858;51.414;0.018;2024-02-15T15:58:34;16.30;99.90